sim
Sign-in with your pilot id or email,
or register
Callsign
Passwort

Schedule Details

Flight Number: DLH2217 (1)
Departure: Toulouse Blagnac Airport (LFBO) at 07:55
Arrival: Munich Airport (EDDM) at 09:40
Route: Lufthansa Passenger Schedule. Enter filed route here before submitting Pirep.

Weather Information
Getting current METAR information for LFBO 282100Z AUTO 31005KT CAVOK 13/08 Q1021 NOSIG
Getting current METAR information for EDDM 282120Z 10003KT CAVOK 08/07 Q1015 NOSIG

Schedule Frequency

Route Map